Flight Track Log - Related Links

Times and Time Zones

All times are in EDT time to prevent confusion due to time zone crossing. See the SKW6491 flight status page for this flight to view local times or setup timezone preferences in your user account.

Time Position Orientation Groundspeed Altitude Reporting Facility
EDT Latitude Longitude Course Direction KTS MPH feet Rate Location/Type
Mon 06:59:38 PM 32.1233 -110.9494 139° Southeast 173 199 3,200  Level Albuquerque Center
Mon 07:00:08 PM 32.1433 -110.9744 313° West 194 223 4,100 2,176 Climbing Albuquerque Center
Mon 07:01:09 PM 32.2000 -111.0019 338° Northwest 238 274 6,500 1,953 Climbing Albuquerque Center
Mon 07:01:34 PM 32.2167 -110.9944 21° North 226 260 6,900 2,000 Climbing Albuquerque Center
Mon 07:02:00 PM 32.3880 -110.7442 31° Northeast  Level Estimated
Mon 07:02:03 PM 32.2414 -110.9503 56° Northeast 263 303 8,300  Level Albuquerque Center
Mon 07:02:36 PM 32.2667 -110.9028 58° Northeast 269 310 9,300 2,459 Climbing Albuquerque Center
Mon 07:03:00 PM 32.4786 -110.6784 90° East  Level Estimated
Mon 07:03:04 PM 32.2847 -110.8656 60° Northeast 280 322 10,800  Level Albuquerque Center
Mon 07:03:37 PM 32.3067 -110.8261 57° Northeast 276 318 11,800 1,915 Climbing Albuquerque Center
Mon 07:04:00 PM 32.5691 -110.6124 90° East  Level Estimated
Mon 07:04:38 PM 32.3303 -110.7394 72° East 292 336 13,800  Level Albuquerque Center
Mon 07:05:00 PM 32.4893 -110.5292 139° Southeast  Level FlightAware Approximate
Mon 07:05:40 PM 32.3278 -110.6386 92° East 308 354 15,400  Level Albuquerque Center
Mon 07:06:41 PM 32.3217 -110.5306 94° East 315 362 16,400 1,122 Climbing Albuquerque Center
Mon 07:07:43 PM 32.3172 -110.4128 93° East 333 383 17,700 1,220 Climbing Albuquerque Center
Mon 07:08:44 PM 32.3142 -110.2906 92° East 350 403 18,900 1,220 Climbing Albuquerque Center
Mon 07:09:46 PM 32.3089 -110.1667 93° East 365 420 20,200 1,317 Climbing Albuquerque Center
Mon 07:10:47 PM 32.3017 -110.0178 93° East 374 430 21,600 1,230 Climbing Albuquerque Center
Mon 07:11:48 PM 32.2950 -109.8892 93° East 382 440 22,700 1,024 Climbing Albuquerque Center
Mon 07:12:50 PM 32.3314 -109.7781 69° East 377 434 23,700 976 Climbing Albuquerque Center
Mon 07:13:51 PM 32.4144 -109.7208 30° Northeast 367 422 24,700 1,033 Climbing Albuquerque Center
Mon 07:14:52 PM 32.5081 -109.6847 18° North 358 412 25,800 976 Climbing Albuquerque Center
Mon 07:15:54 PM 32.6042 -109.6503 17° North 357 411 26,700 780 Climbing Albuquerque Center
Mon 07:16:55 PM 32.7011 -109.6161 17° North 358 412 27,400 689 Climbing Albuquerque Center
Mon 07:17:56 PM 32.7997 -109.5833 16° North 362 417 28,100 829 Climbing Albuquerque Center
Mon 07:18:58 PM 32.8975 -109.5469 17° North 365 420 29,100 878 Climbing Albuquerque Center
Mon 07:19:59 PM 32.9944 -109.5128 16° North 364 419 29,900 1,033 Climbing Albuquerque Center
Mon 07:21:00 PM 33.1069 -109.4711 17° North 356 410 31,200 927 Climbing Albuquerque Center
Mon 07:22:02 PM 33.1975 -109.4394 16° North 344 396 31,800 537 Climbing Albuquerque Center
Mon 07:23:03 PM 33.2872 -109.4067 17° North 340 391 32,300 492 Climbing Albuquerque Center
Mon 07:24:04 PM 33.3767 -109.3736 17° North 340 391 32,800 341 Climbing Albuquerque Center
Mon 07:25:06 PM 33.4658 -109.3414 17° North 339 390 33,000 98 Climbing Albuquerque Center
Mon 07:26:07 PM 33.5572 -109.3083 17° North 338 389 33,000  Level Albuquerque Center
Mon 07:27:08 PM 33.6519 -109.2739 17° North 343 395 33,000  Level Albuquerque Center
Mon 07:28:10 PM 33.7478 -109.2375 18° North 353 406 33,000  Level Albuquerque Center
Mon 07:29:11 PM 33.8456 -109.2033 16° North 358 412 33,000  Level Albuquerque Center
Mon 07:30:12 PM 33.9436 -109.1675 17° North 365 420 33,000  Level Albuquerque Center
Mon 07:31:14 PM 34.0447 -109.1300 17° North 375 432 33,000  Level Albuquerque Center
Mon 07:32:15 PM 34.1639 -109.0847 17° North 375 432 33,000  Level Albuquerque Center
Mon 07:34:18 PM 34.3528 -109.0133 17° North 373 429 33,000  Level Albuquerque Center
Mon 07:35:19 PM 34.4603 -108.9747 16° North 364 419 33,000  Level Albuquerque Center
Mon 07:36:20 PM 34.5522 -108.9400 17° North 363 418 33,000  Level Albuquerque Center
Mon 07:37:22 PM 34.6586 -108.8983 18° North 363 418 33,000  Level Albuquerque Center
Mon 07:38:23 PM 34.7500 -108.8647 17° North 362 417 33,000  Level Albuquerque Center
Mon 07:39:24 PM 34.8422 -108.8300 17° North 361 415 33,000  Level Albuquerque Center
Mon 07:40:26 PM 34.9494 -108.7931 16° North 361 415 33,000  Level Albuquerque Center
Mon 07:41:27 PM 35.0408 -108.7583 17° North 361 415 33,000  Level Albuquerque Center
Mon 07:42:28 PM 35.1497 -108.7156 18° North 363 418 33,000  Level Albuquerque Center
Mon 07:43:30 PM 35.2425 -108.6800 17° North 363 418 33,000  Level Albuquerque Center
Mon 07:44:31 PM 35.3347 -108.6442 18° North 363 418 33,000  Level Albuquerque Center
Mon 07:45:33 PM 35.4444 -108.6031 17° North 364 419 33,000  Level Albuquerque Center
Mon 07:46:34 PM 35.5381 -108.5669 17° North 365 420 33,000  Level Albuquerque Center
Mon 07:47:35 PM 35.6492 -108.5256 17° North 371 427 33,000  Level Albuquerque Center
Mon 07:48:37 PM 35.7431 -108.4892 17° North 371 427 33,000  Level Albuquerque Center
Mon 07:49:38 PM 35.8536 -108.4472 17° North 371 427 33,000  Level Albuquerque Center
Mon 07:50:40 PM 35.9486 -108.4119 17° North 372 428 33,000  Level Albuquerque Center
Mon 07:51:41 PM 36.0433 -108.3744 18° North 372 428 33,000  Level Albuquerque Center
Mon 07:52:43 PM 36.1550 -108.3311 17° North 374 430 33,000  Level Albuquerque Center
Mon 07:53:44 PM 36.2500 -108.2939 18° North 374 430 33,000  Level Albuquerque Center
Mon 07:54:49 PM 36.3597 -108.2503 18° North 373 429 33,000  Level Denver Center
Mon 07:55:51 PM 36.4681 -108.2075 18° North 370 426 33,000  Level Denver Center
Mon 07:56:53 PM 36.5622 -108.1719 17° North 369 425 33,000  Level Denver Center
Mon 07:57:56 PM 36.6689 -108.1289 18° North 364 419 33,000  Level Denver Center
Mon 07:58:58 PM 36.7597 -108.0861 21° North 363 418 33,000  Level Denver Center
Mon 08:00:00 PM 36.8522 -107.9947 38° Northeast 377 434 33,000  Level Denver Center
Mon 08:01:02 PM 36.9306 -107.9169 38° Northeast 377 434 33,000  Level Denver Center
Mon 08:02:04 PM 37.0247 -107.8258 38° Northeast 383 441 33,000  Level Denver Center
Mon 08:03:06 PM 37.1044 -107.7447 39° Northeast 384 442 33,000  Level Denver Center
Mon 08:04:08 PM 37.1847 -107.6636 39° Northeast 385 443 33,000  Level Denver Center
Mon 08:05:10 PM 37.2792 -107.5683 39° Northeast 387 445 33,000  Level Denver Center
Mon 08:06:12 PM 37.3603 -107.4883 38° Northeast 388 447 33,000  Level Denver Center
Mon 08:07:14 PM 37.4531 -107.3928 39° Northeast 387 445 33,000  Level Denver Center
Mon 08:08:16 PM 37.5336 -107.3128 38° Northeast 386 444 33,000  Level Denver Center
Mon 08:09:18 PM 37.6264 -107.2183 39° Northeast 384 442 33,000  Level Denver Center
Mon 08:10:20 PM 37.7053 -107.1406 38° Northeast 381 438 33,000  Level Denver Center
Mon 08:11:22 PM 37.7947 -107.0469 40° Northeast 377 434 33,000  Level Denver Center
Mon 08:12:24 PM 37.8769 -106.9628 39° Northeast 377 434 33,000  Level Denver Center
Mon 08:13:26 PM 37.9542 -106.8825 39° Northeast 377 434 33,000  Level Denver Center
Mon 08:14:28 PM 38.0431 -106.7914 39° Northeast 369 425 33,000 -48 Level Denver Center
Mon 08:15:30 PM 38.1189 -106.7139 39° Northeast 367 422 32,900 -585 Descending Denver Center
Mon 08:16:31 PM 38.2075 -106.6217 39° Northeast 367 422 31,800 -1,024 Descending Denver Center
Mon 08:17:33 PM 38.2836 -106.5342 42° Northeast 382 440 30,800 -968 Descending Denver Center
Mon 08:18:35 PM 38.3600 -106.4389 44° Northeast 382 440 29,800 -968 Descending Denver Center
Mon 08:19:37 PM 38.4361 -106.3431 45° Northeast 383 441 28,800 -968 Descending Denver Center
Mon 08:20:39 PM 38.5144 -106.2458 44° Northeast 387 445 27,800 -871 Descending Denver Center
Mon 08:21:41 PM 38.6075 -106.1297 44° Northeast 387 445 27,000 -387 Descending Denver Center
Mon 08:22:43 PM 38.6792 -106.0381 45° Northeast 380 437 27,000  Level Denver Center
Mon 08:23:45 PM 38.7536 -105.9447 44° Northeast 379 436 27,000  Level Denver Center
Mon 08:24:47 PM 38.8242 -105.8561 44° Northeast 360 414 27,000 -435 Level Denver Center
Mon 08:25:49 PM 38.8922 -105.7689 45° Northeast 341 392 26,100 -1,355 Descending Denver Center
Mon 08:26:51 PM 38.9633 -105.6775 45° Northeast 329 379 24,200 -1,694 Descending Denver Center
Mon 08:27:53 PM 39.0242 -105.6014 44° Northeast 323 372 22,600 -1,597 Descending Denver Center
Mon 08:28:55 PM 39.0944 -105.5114 45° Northeast 322 371 20,900 -1,452 Descending Denver Center
Mon 08:29:57 PM 39.1544 -105.4356 44° Northeast 316 364 19,600 -1,258 Descending Denver Center
Mon 08:30:59 PM 39.2150 -105.3575 45° Northeast 287 330 18,300 -1,113 Descending Denver Center
Mon 08:32:01 PM 39.2756 -105.2842 43° Northeast 300 345 17,300 -1,122 Descending Denver Center
Mon 08:33:02 PM 39.3414 -105.2036 43° Northeast 304 350 16,000 -1,171 Descending Denver Center
Mon 08:34:04 PM 39.3678 -105.0958 72° East 307 353 14,900 -1,065 Descending Denver Center
Mon 08:35:06 PM 39.3744 -104.9828 86° East 320 368 13,800 -919 Descending Denver Center
Mon 08:36:08 PM 39.3811 -104.8742 85° East 289 333 13,000 -387 Descending Denver Center
Mon 08:37:10 PM 39.3997 -104.7783 76° East 288 331 13,000 -48 Level Denver Center
Mon 08:38:12 PM 39.4628 -104.7294 31° Northeast 249 287 12,900 -677 Descending Denver Center
Mon 08:39:14 PM 39.5217 -104.6861 30° Northeast 245 282 11,600 -1,355 Descending Denver Center
Mon 08:40:16 PM 39.5892 -104.6617 16° North 242 278 10,100 -1,220 Descending Denver Center
Mon 08:41:17 PM 39.6478 -104.6631 359° North 211 243 9,100 -1,073 Descending Denver Center
Mon 08:42:19 PM 39.7006 -104.6619 North 190 219 7,900 -1,065 Descending Denver Center
Mon 08:43:21 PM 39.7544 -104.6614 360° North 181 208 6,900 -823 Descending Denver Center
Mon 08:44:23 PM 39.7925 -104.6608 North 140 161 6,200 -677 Descending Denver Center
Mon 08:45:25 PM 39.8319 -104.6600 North 137 158 5,500 -677 Descending Denver Center

Login

Don't have an account? Register now (free) for customized features, flight alerts, and more!